createdAt,value
2023-01-08T00:01:06.729Z,88.59
2023-01-08T00:03:35.035Z,88.65
2023-01-08T00:06:05.601Z,88.63
2023-01-08T00:08:34.307Z,88.70
2023-01-08T00:11:02.516Z,88.84
2023-01-08T00:13:30.676Z,88.91
2023-01-08T00:15:58.576Z,88.28
2023-01-08T00:18:27.317Z,88.64
2023-01-08T00:20:55.495Z,88.63
2023-01-08T00:23:25.227Z,88.55
2023-01-08T00:25:53.159Z,88.66
2023-01-08T00:28:21.511Z,89.27
2023-01-08T00:30:50.141Z,88.65
2023-01-08T00:33:18.060Z,89.03
2023-01-08T00:35:45.890Z,89.09
2023-01-08T00:38:14.214Z,89.19
2023-01-08T00:40:43.449Z,89.55
2023-01-08T00:43:11.307Z,89.63
2023-01-08T00:45:39.242Z,89.28
2023-01-08T00:48:07.781Z,89.06
2023-01-08T00:50:35.581Z,89.22
2023-01-08T00:53:04.135Z,89.28
2023-01-08T00:55:32.271Z,89.09
2023-01-08T00:58:01.429Z,89.10
2023-01-08T01:00:29.292Z,88.89
2023-01-08T01:02:57.126Z,88.95
2023-01-08T01:05:25.029Z,89.11
2023-01-08T01:07:52.948Z,88.84
2023-01-08T01:10:20.878Z,89.18
2023-01-08T01:12:48.722Z,89.13
2023-01-08T01:15:19.653Z,89.56
2023-01-08T01:17:47.771Z,89.10
2023-01-08T01:20:17.329Z,89.56
2023-01-08T01:22:45.372Z,89.37
2023-01-08T01:25:14.189Z,89.17
2023-01-08T01:27:43.062Z,89.74
2023-01-08T01:30:11.787Z,89.83
2023-01-08T01:32:41.107Z,89.74
2023-01-08T01:35:09.592Z,90.01
2023-01-08T01:37:39.042Z,89.98
2023-01-08T01:40:07.947Z,89.91
2023-01-08T01:42:41.738Z,89.92
2023-01-08T01:45:21.064Z,89.91
2023-01-08T01:47:55.532Z,89.71
2023-01-08T01:50:29.284Z,89.77
2023-01-08T01:53:02.835Z,90.11
2023-01-08T01:55:31.876Z,89.88
2023-01-08T01:58:04.639Z,90.27
2023-01-08T02:00:34.715Z,89.86
2023-01-08T02:03:05.965Z,90.04
2023-01-08T02:05:44.528Z,89.91
2023-01-08T02:08:14.126Z,90.43
2023-01-08T02:10:48.846Z,90.14
2023-01-08T02:13:22.534Z,89.80
2023-01-08T02:15:57.805Z,90.29
2023-01-08T02:18:35.707Z,90.25
2023-01-08T02:21:09.611Z,90.13
2023-01-08T02:23:47.352Z,90.10
2023-01-08T02:26:21.118Z,90.31
2023-01-08T02:28:54.088Z,89.85
2023-01-08T02:31:24.966Z,90.03
2023-01-08T02:33:52.984Z,90.60
2023-01-08T02:36:33.153Z,90.71
2023-01-08T02:39:22.042Z,91.20
2023-01-08T02:42:02.064Z,90.74
2023-01-08T02:44:37.401Z,90.35
2023-01-08T02:47:09.023Z,91.34
2023-01-08T02:49:42.779Z,91.08
2023-01-08T02:52:12.980Z,90.50
2023-01-08T02:54:43.423Z,90.55
2023-01-08T02:57:15.777Z,90.99
2023-01-08T02:59:46.906Z,91.00
2023-01-08T03:02:15.173Z,91.49
2023-01-08T03:04:50.680Z,90.50
2023-01-08T03:07:18.485Z,90.61
2023-01-08T03:09:46.610Z,89.90
2023-01-08T03:12:19.690Z,90.34
2023-01-08T03:14:53.924Z,90.00
2023-01-08T03:17:26.069Z,89.85
2023-01-08T03:19:57.414Z,89.98
2023-01-08T03:22:26.473Z,90.18
2023-01-08T03:24:57.876Z,89.79
2023-01-08T03:27:31.183Z,89.37
2023-01-08T03:30:00.687Z,89.06
2023-01-08T03:32:31.062Z,89.17
2023-01-08T03:35:01.531Z,89.43
2023-01-08T03:37:38.241Z,89.04
2023-01-08T03:40:10.705Z,88.68
2023-01-08T03:42:40.080Z,89.10
2023-01-08T03:45:09.188Z,88.98
2023-01-08T03:47:39.223Z,89.34
2023-01-08T03:50:10.860Z,89.25
2023-01-08T03:52:38.833Z,89.11
2023-01-08T03:55:07.236Z,88.80
2023-01-08T03:57:35.050Z,88.86
2023-01-08T04:00:05.656Z,88.36
2023-01-08T04:02:33.658Z,88.89
2023-01-08T04:05:01.699Z,88.27
2023-01-08T04:07:29.546Z,88.05
2023-01-08T04:09:57.517Z,88.42
2023-01-08T04:12:25.810Z,87.97
2023-01-08T04:14:53.696Z,87.99
2023-01-08T04:17:22.995Z,88.14
2023-01-08T04:19:50.835Z,87.48
2023-01-08T04:22:18.773Z,87.40
2023-01-08T04:24:46.645Z,87.84
2023-01-08T04:27:14.441Z,87.58
2023-01-08T04:29:42.300Z,86.64
2023-01-08T04:32:10.181Z,86.73
2023-01-08T04:34:39.343Z,86.48
2023-01-08T04:37:07.170Z,86.85
2023-01-08T04:39:35.139Z,86.15
2023-01-08T04:42:02.938Z,85.83
2023-01-08T04:44:30.808Z,86.25
2023-01-08T04:46:58.649Z,85.68
2023-01-08T04:49:26.482Z,85.89
2023-01-08T04:51:55.679Z,86.54
2023-01-08T04:54:23.978Z,86.47
2023-01-08T04:56:52.661Z,86.95
2023-01-08T04:59:20.619Z,87.00
2023-01-08T05:01:48.571Z,86.59
2023-01-08T05:04:16.452Z,87.32
2023-01-08T05:06:44.271Z,87.75
2023-01-08T05:09:13.436Z,87.23
2023-01-08T05:11:41.277Z,87.62
2023-01-08T05:14:09.885Z,87.32
2023-01-08T05:16:37.686Z,87.54
2023-01-08T05:19:05.538Z,87.83
2023-01-08T05:21:33.494Z,87.85
2023-01-08T05:24:01.390Z,87.65
2023-01-08T05:26:30.578Z,87.33
2023-01-08T05:28:58.931Z,87.18
2023-01-08T05:31:26.990Z,87.80
2023-01-08T05:33:54.850Z,88.07
2023-01-08T05:36:22.654Z,87.61
2023-01-08T05:38:50.829Z,88.89
2023-01-08T05:41:18.732Z,89.29
2023-01-08T05:43:47.930Z,89.34
2023-01-08T05:46:15.802Z,88.51
2023-01-08T05:48:43.646Z,88.24
2023-01-08T05:51:11.464Z,88.48
2023-01-08T05:53:39.533Z,88.24
2023-01-08T05:56:09.817Z,88.87
2023-01-08T05:58:38.073Z,89.31
2023-01-08T06:01:10.176Z,89.87
2023-01-08T06:03:38.692Z,88.92
2023-01-08T06:06:08.490Z,89.09
2023-01-08T06:08:36.547Z,89.14
2023-01-08T06:11:07.766Z,89.34
2023-01-08T06:13:37.816Z,90.00
2023-01-08T06:16:07.836Z,89.95
2023-01-08T06:18:36.284Z,89.73
2023-01-08T06:21:05.235Z,89.61
2023-01-08T06:23:33.225Z,90.42
2023-01-08T06:26:04.154Z,89.66
2023-01-08T06:28:32.721Z,90.03
2023-01-08T06:31:01.564Z,90.72
2023-01-08T06:33:31.387Z,90.61
2023-01-08T06:36:02.190Z,90.16
2023-01-08T06:38:32.193Z,89.79
2023-01-08T06:41:00.024Z,89.91
2023-01-08T06:43:27.817Z,89.32
2023-01-08T06:45:57.951Z,89.31
2023-01-08T06:48:26.624Z,89.31
2023-01-08T06:50:56.292Z,89.82
2023-01-08T06:53:24.847Z,88.65
2023-01-08T06:55:56.855Z,88.83
2023-01-08T06:58:25.347Z,89.34
2023-01-08T07:00:53.291Z,89.02
2023-01-08T07:03:21.808Z,89.32
2023-01-08T07:05:50.735Z,88.79
2023-01-08T07:08:20.366Z,89.14
2023-01-08T07:10:48.325Z,88.82
2023-01-08T07:13:16.307Z,88.79
2023-01-08T07:15:44.520Z,88.48
2023-01-08T07:18:13.518Z,89.92
2023-01-08T07:20:41.434Z,89.76
2023-01-08T07:23:12.844Z,90.46
2023-01-08T07:25:42.693Z,90.89
2023-01-08T07:28:12.815Z,91.68
2023-01-08T07:30:40.753Z,92.33
2023-01-08T07:33:08.569Z,92.52
2023-01-08T07:35:38.321Z,92.60
2023-01-08T07:38:06.390Z,92.63
2023-01-08T07:40:34.240Z,93.52
2023-01-08T07:43:05.275Z,94.03
2023-01-08T07:45:33.372Z,94.17
2023-01-08T07:48:01.666Z,94.79
2023-01-08T07:50:29.694Z,94.75
2023-01-08T07:53:01.467Z,94.99
2023-01-08T07:55:30.757Z,95.37
2023-01-08T07:57:58.796Z,95.28
2023-01-08T08:00:28.283Z,95.28
2023-01-08T08:02:56.327Z,95.88
2023-01-08T08:05:24.293Z,96.78
2023-01-08T08:07:52.187Z,96.66
2023-01-08T08:10:20.045Z,97.18
2023-01-08T08:12:47.835Z,97.08
2023-01-08T08:15:15.774Z,96.90
2023-01-08T08:17:47.740Z,96.88
2023-01-08T08:20:15.760Z,97.83
2023-01-08T08:22:43.611Z,98.13
2023-01-08T08:25:12.006Z,97.10
2023-01-08T08:27:39.902Z,98.11
2023-01-08T08:30:09.503Z,98.26
2023-01-08T08:32:37.555Z,97.16
2023-01-08T08:35:08.059Z,97.06
2023-01-08T08:37:35.948Z,97.57
2023-01-08T08:40:03.804Z,97.63
2023-01-08T08:42:31.679Z,97.39
2023-01-08T08:44:59.526Z,96.89
2023-01-08T08:47:27.377Z,96.47
2023-01-08T08:49:55.273Z,96.32
2023-01-08T08:52:24.501Z,96.59
2023-01-08T08:54:52.308Z,96.97
2023-01-08T08:57:20.348Z,96.06
2023-01-08T08:59:48.228Z,96.32
2023-01-08T09:02:16.270Z,96.48
2023-01-08T09:04:44.122Z,96.64
2023-01-08T09:07:12.002Z,96.79
2023-01-08T09:09:41.124Z,96.83
2023-01-08T09:12:09.107Z,97.38
2023-01-08T09:14:37.002Z,96.59
2023-01-08T09:17:04.816Z,96.07
2023-01-08T09:19:32.743Z,95.82
2023-01-08T09:22:00.508Z,96.37
2023-01-08T09:24:28.311Z,95.68
2023-01-08T09:26:57.566Z,96.00
2023-01-08T09:29:25.883Z,96.34
2023-01-08T09:31:53.777Z,95.87
2023-01-08T09:34:21.632Z,96.02
2023-01-08T09:36:49.393Z,95.98
2023-01-08T09:39:17.248Z,95.35
2023-01-08T09:41:47.681Z,95.87
2023-01-08T09:44:21.649Z,95.43
2023-01-08T09:46:50.297Z,94.89
2023-01-08T09:49:23.491Z,93.97
2023-01-08T09:51:51.369Z,94.52
2023-01-08T09:54:19.584Z,94.98
2023-01-08T09:56:47.459Z,93.76
2023-01-08T09:59:19.358Z,93.66
2023-01-08T10:01:48.762Z,93.56
2023-01-08T10:04:20.132Z,93.01
2023-01-08T10:06:53.249Z,93.35
2023-01-08T10:09:25.246Z,93.76
2023-01-08T10:11:56.177Z,93.25
2023-01-08T10:14:28.106Z,92.65
2023-01-08T10:17:00.641Z,93.72
2023-01-08T10:19:28.464Z,92.92
2023-01-08T10:21:58.522Z,92.84
2023-01-08T10:24:34.701Z,92.29
2023-01-08T10:27:10.236Z,91.51
2023-01-08T10:29:40.753Z,91.56
2023-01-08T10:32:16.357Z,92.09
2023-01-08T10:34:47.628Z,92.00
2023-01-08T10:37:23.117Z,92.32
2023-01-08T10:39:51.590Z,91.15
2023-01-08T10:42:21.277Z,90.84
2023-01-08T10:45:01.163Z,91.19
2023-01-08T10:47:31.855Z,91.26
2023-01-08T10:50:01.141Z,90.53
2023-01-08T10:52:32.881Z,91.78
2023-01-08T10:55:14.711Z,90.74
2023-01-08T10:57:44.714Z,91.14
2023-01-08T11:00:29.354Z,90.64
2023-01-08T11:02:59.955Z,90.16
2023-01-08T11:05:32.944Z,90.97
2023-01-08T11:08:03.743Z,89.96
2023-01-08T11:10:31.771Z,90.47
2023-01-08T11:13:01.524Z,90.33
2023-01-08T11:15:33.075Z,90.24
2023-01-08T11:18:19.873Z,90.17
2023-01-08T11:20:48.707Z,89.09
2023-01-08T11:23:19.961Z,90.37
2023-01-08T11:25:55.460Z,90.30
2023-01-08T11:28:30.533Z,90.55
2023-01-08T11:31:10.999Z,89.45
2023-01-08T11:33:41.641Z,90.09
2023-01-08T11:36:17.098Z,89.93
2023-01-08T11:38:44.953Z,88.86
2023-01-08T11:41:30.140Z,89.19
2023-01-08T11:44:19.237Z,88.92
2023-01-08T11:46:56.221Z,89.19
2023-01-08T11:49:39.713Z,89.86
2023-01-08T11:52:21.276Z,88.31
2023-01-08T11:55:07.596Z,88.50
2023-01-08T11:57:44.588Z,88.06
2023-01-08T12:00:29.616Z,88.19
2023-01-08T12:03:02.497Z,87.31
2023-01-08T12:05:33.099Z,87.97
2023-01-08T12:08:04.947Z,87.68
2023-01-08T12:10:42.769Z,87.72
2023-01-08T12:13:23.963Z,89.03
2023-01-08T12:16:03.051Z,88.56
2023-01-08T12:18:49.632Z,87.95
2023-01-08T12:21:27.336Z,88.04
2023-01-08T12:24:10.799Z,87.54
2023-01-08T12:26:48.371Z,87.75
2023-01-08T12:29:28.471Z,86.46
2023-01-08T12:32:10.347Z,86.65
2023-01-08T12:34:50.352Z,85.99
2023-01-08T12:37:25.352Z,86.89
2023-01-08T12:39:56.811Z,87.66
2023-01-08T12:42:29.015Z,87.23
2023-01-08T12:45:00.229Z,86.86
2023-01-08T12:47:32.079Z,86.26
2023-01-08T12:50:11.012Z,85.80
2023-01-08T12:52:48.706Z,86.19
2023-01-08T12:55:28.923Z,86.71
2023-01-08T12:58:06.740Z,87.16
2023-01-08T13:00:40.918Z,86.22
2023-01-08T13:03:14.936Z,86.06
2023-01-08T13:05:44.869Z,86.37
2023-01-08T13:08:30.594Z,85.70
2023-01-08T13:10:58.755Z,85.45
2023-01-08T13:13:29.544Z,86.02
2023-01-08T13:16:22.250Z,86.76
2023-01-08T13:18:56.018Z,86.05
2023-01-08T13:21:37.311Z,85.80
2023-01-08T13:24:08.723Z,84.85
2023-01-08T13:26:37.760Z,85.86
2023-01-08T13:29:23.957Z,85.62
2023-01-08T13:31:52.410Z,85.98
2023-01-08T13:34:35.056Z,85.46
2023-01-08T13:37:04.281Z,86.13
2023-01-08T13:39:37.647Z,86.10
2023-01-08T13:42:28.580Z,85.59
2023-01-08T13:45:02.113Z,86.94
2023-01-08T13:47:33.273Z,86.08
2023-01-08T13:50:04.340Z,85.47
2023-01-08T13:52:41.681Z,85.50
2023-01-08T13:55:16.350Z,84.88
2023-01-08T13:57:47.974Z,85.81
2023-01-08T14:00:23.229Z,85.51
2023-01-08T14:02:51.625Z,84.46
2023-01-08T14:05:23.565Z,83.84
2023-01-08T14:07:52.941Z,83.47
2023-01-08T14:10:21.922Z,83.20
2023-01-08T14:12:51.428Z,83.25
2023-01-08T14:15:23.529Z,83.53
2023-01-08T14:17:52.190Z,82.78
2023-01-08T14:20:32.675Z,83.43
2023-01-08T14:23:03.290Z,82.39
2023-01-08T14:25:31.489Z,82.77
2023-01-08T14:28:02.397Z,82.81
2023-01-08T14:30:31.185Z,82.30
2023-01-08T14:33:00.672Z,82.53
2023-01-08T14:35:32.976Z,82.77
2023-01-08T14:38:03.419Z,83.26
2023-01-08T14:40:34.225Z,82.13
2023-01-08T14:43:08.038Z,83.62
2023-01-08T14:45:37.396Z,83.41
2023-01-08T14:48:11.599Z,83.41
2023-01-08T14:50:42.849Z,83.59
2023-01-08T14:53:23.696Z,82.94
2023-01-08T14:55:55.232Z,82.74
2023-01-08T14:58:25.277Z,83.41
2023-01-08T15:00:55.727Z,83.23
2023-01-08T15:03:35.458Z,83.45
2023-01-08T15:06:03.870Z,83.37
2023-01-08T15:08:38.854Z,83.62
2023-01-08T15:11:15.523Z,83.58
2023-01-08T15:13:43.466Z,83.59
2023-01-08T15:16:13.229Z,83.52
2023-01-08T15:18:46.997Z,83.60
2023-01-08T15:21:19.715Z,83.27
2023-01-08T15:23:51.559Z,83.45
2023-01-08T15:26:19.794Z,83.78
2023-01-08T15:28:52.724Z,83.69
2023-01-08T15:31:28.901Z,83.37
2023-01-08T15:33:57.807Z,83.99
2023-01-08T15:36:25.946Z,84.39
2023-01-08T15:38:55.568Z,84.60
2023-01-08T15:41:42.426Z,84.00
2023-01-08T15:44:12.798Z,84.72
2023-01-08T15:46:40.630Z,85.31
2023-01-08T15:49:08.442Z,85.03
2023-01-08T15:51:38.549Z,84.94
2023-01-08T15:54:10.022Z,85.45
2023-01-08T15:56:37.916Z,84.98
2023-01-08T15:59:05.758Z,85.61
2023-01-08T16:01:34.635Z,86.41
2023-01-08T16:04:02.551Z,86.13
2023-01-08T16:06:30.496Z,86.37
2023-01-08T16:09:00.323Z,86.32
2023-01-08T16:11:29.688Z,85.72
2023-01-08T16:13:57.544Z,85.94
2023-01-08T16:16:25.448Z,86.00
2023-01-08T16:18:53.522Z,86.29
2023-01-08T16:21:21.401Z,86.05
2023-01-08T16:23:49.264Z,86.45
2023-01-08T16:26:17.468Z,86.39
2023-01-08T16:28:46.721Z,87.11
2023-01-08T16:31:14.616Z,86.78
2023-01-08T16:33:42.505Z,87.26
2023-01-08T16:36:11.584Z,87.26
2023-01-08T16:38:39.420Z,86.87
2023-01-08T16:41:07.328Z,86.62
2023-01-08T16:43:41.215Z,86.93
2023-01-08T16:46:14.973Z,87.01
2023-01-08T16:48:43.471Z,86.65
2023-01-08T16:51:11.887Z,87.79
2023-01-08T16:53:40.683Z,87.14
2023-01-08T16:56:09.179Z,86.55
2023-01-08T16:58:37.813Z,86.89
2023-01-08T17:01:10.269Z,86.32
2023-01-08T17:03:39.763Z,87.02
2023-01-08T17:06:09.756Z,86.61
2023-01-08T17:08:40.124Z,86.81
2023-01-08T17:11:09.937Z,86.41
2023-01-08T17:13:38.326Z,85.74
2023-01-08T17:16:07.045Z,85.93
2023-01-08T17:18:34.903Z,86.18
2023-01-08T17:21:05.095Z,85.67
2023-01-08T17:23:33.170Z,86.80
2023-01-08T17:26:04.107Z,86.58
2023-01-08T17:28:35.009Z,86.55
2023-01-08T17:31:04.477Z,86.80
2023-01-08T17:33:32.480Z,87.06
2023-01-08T17:36:00.429Z,87.70
2023-01-08T17:38:29.681Z,87.60
2023-01-08T17:41:01.409Z,88.21
2023-01-08T17:43:29.345Z,87.80
2023-01-08T17:45:57.302Z,88.88
2023-01-08T17:48:25.179Z,88.39
2023-01-08T17:50:53.057Z,87.24
2023-01-08T17:53:20.886Z,86.89
2023-01-08T17:55:50.203Z,87.19
2023-01-08T17:58:18.077Z,87.62
2023-01-08T18:00:46.021Z,87.56
2023-01-08T18:03:13.966Z,87.57
2023-01-08T18:05:41.988Z,87.41
2023-01-08T18:08:09.776Z,86.93
2023-01-08T18:10:38.610Z,86.99
2023-01-08T18:13:07.793Z,87.02
2023-01-08T18:15:35.770Z,87.01
2023-01-08T18:18:03.593Z,86.28
2023-01-08T18:20:31.434Z,87.33
2023-01-08T18:22:59.333Z,87.13
2023-01-08T18:25:27.741Z,86.72
2023-01-08T18:27:55.678Z,86.28
2023-01-08T18:30:25.183Z,86.57
2023-01-08T18:32:53.071Z,86.75
2023-01-08T18:35:20.980Z,86.21
2023-01-08T18:37:48.814Z,86.75
2023-01-08T18:40:17.107Z,86.08
2023-01-08T18:42:44.964Z,86.29
2023-01-08T18:45:15.027Z,85.75
2023-01-08T18:47:44.170Z,86.59
2023-01-08T18:50:12.713Z,85.50
2023-01-08T18:52:41.960Z,86.85
2023-01-08T18:55:10.439Z,86.61
2023-01-08T18:57:39.242Z,86.61
2023-01-08T19:00:08.535Z,86.51
2023-01-08T19:02:36.370Z,86.60
2023-01-08T19:05:06.279Z,87.04
2023-01-08T19:07:34.125Z,86.79
2023-01-08T19:10:02.327Z,86.41
2023-01-08T19:12:32.297Z,87.10
2023-01-08T19:15:00.174Z,86.91
2023-01-08T19:17:30.901Z,86.64
2023-01-08T19:19:59.175Z,87.47
2023-01-08T19:22:28.996Z,87.94
2023-01-08T19:24:57.636Z,87.93
2023-01-08T19:27:25.972Z,88.18
2023-01-08T19:29:55.649Z,88.14
2023-01-08T19:32:24.202Z,88.82
2023-01-08T19:34:53.535Z,89.09
2023-01-08T19:37:21.875Z,88.54
2023-01-08T19:39:51.086Z,90.30
2023-01-08T19:42:37.140Z,90.50
2023-01-08T19:45:05.620Z,90.34
2023-01-08T19:47:33.440Z,91.18
2023-01-08T19:50:01.317Z,89.95
2023-01-08T19:52:29.302Z,90.26
2023-01-08T19:54:59.866Z,90.15
2023-01-08T19:57:27.835Z,91.44
2023-01-08T19:59:55.700Z,92.44
2023-01-08T20:02:23.618Z,93.52
2023-01-08T20:04:51.815Z,93.40
2023-01-08T20:07:19.974Z,93.72
2023-01-08T20:09:47.908Z,93.89
2023-01-08T20:12:17.146Z,93.49
2023-01-08T20:14:45.029Z,92.60
2023-01-08T20:17:13.039Z,92.55
2023-01-08T20:19:40.931Z,93.82
2023-01-08T20:22:08.838Z,95.10
2023-01-08T20:24:36.721Z,94.54
2023-01-08T20:27:04.809Z,95.79
2023-01-08T20:29:34.017Z,96.63
2023-01-08T20:32:04.775Z,96.44
2023-01-08T20:34:33.115Z,96.73
2023-01-08T20:37:00.937Z,96.40
2023-01-08T20:39:28.797Z,97.20
2023-01-08T20:42:04.296Z,97.17
2023-01-08T20:44:34.630Z,97.99
2023-01-08T20:47:02.730Z,97.83
2023-01-08T20:49:30.770Z,97.43
2023-01-08T20:52:00.337Z,98.71
2023-01-08T20:54:29.825Z,98.90
2023-01-08T20:56:58.279Z,97.99
2023-01-08T20:59:26.993Z,98.59
2023-01-08T21:01:57.233Z,99.11
2023-01-08T21:04:25.727Z,99.35
2023-01-08T21:06:53.699Z,98.88
2023-01-08T21:09:21.632Z,99.17
2023-01-08T21:11:49.436Z,99.04
2023-01-08T21:14:17.294Z,99.42
2023-01-08T21:16:45.325Z,99.50
2023-01-08T21:19:16.523Z,100.00
2023-01-08T21:21:45.791Z,99.08
2023-01-08T21:24:15.685Z,100.00
2023-01-08T21:26:45.790Z,99.89
2023-01-08T21:29:14.730Z,100.00
2023-01-08T21:31:43.245Z,100.00
2023-01-08T21:34:11.711Z,100.00
2023-01-08T21:36:41.036Z,99.26
2023-01-08T21:39:09.021Z,99.88
2023-01-08T21:41:54.508Z,99.38
2023-01-08T21:44:41.903Z,99.46
2023-01-08T21:47:12.121Z,99.48
2023-01-08T21:49:40.181Z,99.58
2023-01-08T21:52:27.051Z,99.08
2023-01-08T21:54:56.150Z,99.46
2023-01-08T21:57:25.431Z,100.00
2023-01-08T21:59:53.298Z,100.00
2023-01-08T22:02:24.063Z,100.00
2023-01-08T22:04:55.990Z,100.00
2023-01-08T22:07:25.754Z,100.00
2023-01-08T22:09:53.751Z,100.00
2023-01-08T22:12:22.932Z,100.00
2023-01-08T22:14:53.140Z,100.00
2023-01-08T22:17:21.319Z,100.00
2023-01-08T22:19:49.169Z,100.00
2023-01-08T22:22:17.098Z,100.00
2023-01-08T22:24:46.254Z,100.00
2023-01-08T22:27:14.089Z,100.00
2023-01-08T22:29:41.956Z,100.00
2023-01-08T22:32:09.875Z,100.00
2023-01-08T22:34:37.705Z,100.00
2023-01-08T22:37:05.552Z,100.00
2023-01-08T22:39:33.441Z,100.00
2023-01-08T22:42:02.914Z,100.00
2023-01-08T22:44:30.810Z,100.00
2023-01-08T22:47:00.121Z,100.00
2023-01-08T22:49:28.034Z,100.00
2023-01-08T22:51:56.043Z,100.00
2023-01-08T22:54:23.857Z,100.00
2023-01-08T22:56:51.736Z,100.00
2023-01-08T22:59:21.876Z,100.00
2023-01-08T23:01:49.760Z,100.00
2023-01-08T23:04:17.687Z,100.00
2023-01-08T23:06:45.574Z,100.00
2023-01-08T23:09:13.423Z,100.00
2023-01-08T23:11:41.677Z,100.00
2023-01-08T23:14:13.665Z,100.00
2023-01-08T23:16:43.847Z,100.00
2023-01-08T23:19:12.268Z,100.00
2023-01-08T23:21:40.307Z,100.00
2023-01-08T23:24:12.140Z,100.00
2023-01-08T23:26:39.953Z,100.00
2023-01-08T23:29:07.787Z,100.00
2023-01-08T23:31:37.775Z,100.00
2023-01-08T23:34:07.493Z,100.00
2023-01-08T23:36:35.415Z,100.00
2023-01-08T23:39:03.454Z,100.00
2023-01-08T23:41:34.522Z,100.00
2023-01-08T23:44:05.241Z,100.00
2023-01-08T23:46:33.074Z,100.00
2023-01-08T23:49:01.575Z,100.00
2023-01-08T23:51:31.044Z,100.00
2023-01-08T23:53:58.874Z,100.00
2023-01-08T23:56:27.190Z,100.00
2023-01-08T23:58:55.735Z,100.00
